Airfield :
LOGIN :

Register | Disclaimer

   EN    FR    IT 

 










Legend :    VFR   Marginal VFR   IFR   Intensive IFR   Very Intensive IFR
Visi :
Ceiling :
>= 8 km
>= 3000ft
5 to 8 km
1000 to 3000 ft
1500m to 5 km
500 to 1000 ft
800 to 1500m
200 to 500 ft
< 800m
< 200 ft
Symbols :   Thunderstorms  Fog  Heavy snow  Heavy precipitations  Wind > 20 kt
SIGMETs :     Misc.  Thunderstorms  Icing  Turbulence  Mountain Waves  Volcanic Ashes






- Airport Elevation : 776 ft
- IATA code : RMS


ETAR - Ramstein Air Base

CURRENT METAR :
  • 051356Z AUTO 02007KT 9999 OVC050 05/00 A3027 RMK AO2 SLP263 T00481004 FZRANO $

EXPIRED METARs :
  • 051256Z AUTO 04006KT 9999 OVC050 05/00 A3026 RMK AO2 RAE09 SLP260 P0000 T00510003 FZRANO $
  • 051209Z AUTO 06007KT 9999 SCT026 SCT037 OVC048 04/00 A3026 RMK AO2 RAE09 SLP260 FZRANO $
  • 051156Z AUTO 05006KT 9999 -RA FEW025 SCT037 OVC050 04/00 A3026 RMK AO2 RAB54 SLP260 P0000 60000 70010 T00440002 10047 20026 52013 FZRANO $

TAF TAF ETAR
Valid from the 05 at 10:00 until the 06 at 16:00 UTC


051000Z 0510/0616 02012KT 9999 BKN030 610304 QNH3019INS
BECMG 0517/0518 04009KT 9999 FEW050 QNH3035INS
BECMG 0611/0612 07012KT 9999 SKC QNH3040INS TX06/0514Z TNM02/0606Z



MET'MAP, your aeronautical weather chart ! - Copyright ORBIFLY December 2007 - Disclaimer

ORBIFLY MET'MAP TEAM :

Programming & Development : Alexandra Zaïnal
Concept & original design : Baudouin d'Aumeries
Assistance for programming : Marc-Olivier Méhu
Technical & hardware support : Manuel Goepfert

Contact : metmap@orbifly.com




SOURCES & CREDITS :

   NOAA